sensor_id;sensor_type;location;lat;lon;timestamp;pressure;altitude;pressure_sealevel;temperature;humidity
60101;BME280;45978;53.646;55.930;2022-07-24T00:00:53;98987.50;;;18.59;75.70
60101;BME280;45978;53.646;55.930;2022-07-24T00:01:55;98993.16;;;18.55;75.63
60101;BME280;45978;53.646;55.930;2022-07-24T00:02:57;98987.09;;;18.53;75.80
60101;BME280;45978;53.646;55.930;2022-07-24T00:03:58;98996.91;;;18.52;75.88
60101;BME280;45978;53.646;55.930;2022-07-24T00:04:59;98989.91;;;18.51;75.95
60101;BME280;45978;53.646;55.930;2022-07-24T00:06:02;98998.34;;;18.56;75.68
60101;BME280;45978;53.646;55.930;2022-07-24T00:07:03;98991.38;;;18.55;75.67
60101;BME280;45978;53.646;55.930;2022-07-24T00:08:05;98991.38;;;18.55;75.68
60101;BME280;45978;53.646;55.930;2022-07-24T00:09:06;98992.09;;;18.57;75.46
60101;BME280;45978;53.646;55.930;2022-07-24T00:10:08;98994.59;;;18.59;75.61
60101;BME280;45978;53.646;55.930;2022-07-24T00:11:11;98990.28;;;18.58;75.53
60101;BME280;45978;53.646;55.930;2022-07-24T00:12:12;98989.66;;;18.54;75.41
60101;BME280;45978;53.646;55.930;2022-07-24T00:13:13;98993.66;;;18.60;75.31
60101;BME280;45978;53.646;55.930;2022-07-24T00:14:15;98994.03;;;18.67;75.35
60101;BME280;45978;53.646;55.930;2022-07-24T00:15:17;98989.91;;;18.63;75.06
60101;BME280;45978;53.646;55.930;2022-07-24T00:16:18;98995.13;;;18.64;74.93
60101;BME280;45978;53.646;55.930;2022-07-24T00:17:19;98990.91;;;18.62;75.09
60101;BME280;45978;53.646;55.930;2022-07-24T00:18:20;98983.88;;;18.60;75.06
60101;BME280;45978;53.646;55.930;2022-07-24T00:19:21;98991.00;;;18.60;75.11
60101;BME280;45978;53.646;55.930;2022-07-24T00:20:22;98993.03;;;18.56;75.13
60101;BME280;45978;53.646;55.930;2022-07-24T00:21:24;98987.09;;;18.53;75.12
60101;BME280;45978;53.646;55.930;2022-07-24T00:22:25;98986.03;;;18.55;75.00
60101;BME280;45978;53.646;55.930;2022-07-24T00:23:26;98990.16;;;18.59;74.99
60101;BME280;45978;53.646;55.930;2022-07-24T00:24:28;98990.91;;;18.62;74.92
60101;BME280;45978;53.646;55.930;2022-07-24T00:25:29;98991.06;;;18.71;74.78
60101;BME280;45978;53.646;55.930;2022-07-24T00:26:30;98987.03;;;18.66;74.52
60101;BME280;45978;53.646;55.930;2022-07-24T00:27:31;98995.28;;;18.74;74.48
60101;BME280;45978;53.646;55.930;2022-07-24T00:28:32;99000.81;;;18.71;74.50
60101;BME280;45978;53.646;55.930;2022-07-24T00:29:33;98997.91;;;18.63;74.81
60101;BME280;45978;53.646;55.930;2022-07-24T00:30:34;98994.75;;;18.57;74.91
60101;BME280;45978;53.646;55.930;2022-07-24T00:31:36;99000.91;;;18.58;75.14
60101;BME280;45978;53.646;55.930;2022-07-24T00:32:37;98996.44;;;18.58;75.24
60101;BME280;45978;53.646;55.930;2022-07-24T00:33:39;99003.22;;;18.63;75.27
60101;BME280;45978;53.646;55.930;2022-07-24T00:34:40;98998.63;;;18.65;75.00
60101;BME280;45978;53.646;55.930;2022-07-24T00:35:42;98996.47;;;18.70;75.13
60101;BME280;45978;53.646;55.930;2022-07-24T00:36:44;98992.84;;;18.71;74.79
60101;BME280;45978;53.646;55.930;2022-07-24T00:37:45;99002.31;;;18.75;74.65
60101;BME280;45978;53.646;55.930;2022-07-24T00:38:49;99001.78;;;18.70;74.89
60101;BME280;45978;53.646;55.930;2022-07-24T00:39:50;98996.22;;;18.62;74.89
60101;BME280;45978;53.646;55.930;2022-07-24T00:40:52;98994.75;;;18.57;74.86
60101;BME280;45978;53.646;55.930;2022-07-24T00:41:53;98996.91;;;18.52;75.21
60101;BME280;45978;53.646;55.930;2022-07-24T00:42:54;99001.84;;;18.46;75.38
60101;BME280;45978;53.646;55.930;2022-07-24T00:44:01;99002.78;;;18.45;75.78
60101;BME280;45978;53.646;55.930;2022-07-24T00:45:03;99003.03;;;18.42;75.73
60101;BME280;45978;53.646;55.930;2022-07-24T00:46:04;99001.53;;;18.37;75.79
60101;BME280;45978;53.646;55.930;2022-07-24T00:47:05;99003.69;;;18.32;76.12
60101;BME280;45978;53.646;55.930;2022-07-24T00:48:07;99012.63;;;18.31;76.38
60101;BME280;45978;53.646;55.930;2022-07-24T00:49:11;99007.56;;;18.28;76.22
60101;BME280;45978;53.646;55.930;2022-07-24T00:50:13;99002.34;;;18.27;76.64
60101;BME280;45978;53.646;55.930;2022-07-24T00:51:14;99013.19;;;18.24;76.91
60101;BME280;45978;53.646;55.930;2022-07-24T00:52:16;99010.41;;;18.25;77.08
60101;BME280;45978;53.646;55.930;2022-07-24T00:53:17;99011.06;;;18.29;77.02
60101;BME280;45978;53.646;55.930;2022-07-24T00:54:20;99011.88;;;18.29;77.15
60101;BME280;45978;53.646;55.930;2022-07-24T00:55:22;99009.84;;;18.33;77.60
60101;BME280;45978;53.646;55.930;2022-07-24T00:56:23;99003.19;;;18.27;77.03
60101;BME280;45978;53.646;55.930;2022-07-24T00:57:25;99002.72;;;18.33;77.35
60101;BME280;45978;53.646;55.930;2022-07-24T00:58:27;99012.94;;;18.39;77.35
60101;BME280;45978;53.646;55.930;2022-07-24T00:59:28;99009.28;;;18.40;77.17
60101;BME280;45978;53.646;55.930;2022-07-24T01:00:29;99010.66;;;18.46;77.16
60101;BME280;45978;53.646;55.930;2022-07-24T01:01:31;99000.97;;;18.45;77.23
60101;BME280;45978;53.646;55.930;2022-07-24T01:02:33;99000.84;;;18.47;77.03
60101;BME280;45978;53.646;55.930;2022-07-24T01:03:34;99004.97;;;18.51;77.21
60101;BME280;45978;53.646;55.930;2022-07-24T01:04:35;99008.25;;;18.54;77.12
60101;BME280;45978;53.646;55.930;2022-07-24T01:05:36;99007.69;;;18.62;77.17
60101;BME280;45978;53.646;55.930;2022-07-24T01:06:40;99003.09;;;18.64;77.02
60101;BME280;45978;53.646;55.930;2022-07-24T01:07:42;99013.16;;;18.72;76.89
60101;BME280;45978;53.646;55.930;2022-07-24T01:08:46;99005.06;;;18.73;76.79
60101;BME280;45978;53.646;55.930;2022-07-24T01:09:48;99008.22;;;18.78;77.03
60101;BME280;45978;53.646;55.930;2022-07-24T01:10:49;99006.22;;;18.82;76.63
60101;BME280;45978;53.646;55.930;2022-07-24T01:11:51;99006.63;;;18.89;76.26
60101;BME280;45978;53.646;55.930;2022-07-24T01:12:53;99007.47;;;19.01;76.11
60101;BME280;45978;53.646;55.930;2022-07-24T01:13:54;99013.34;;;19.28;75.64
60101;BME280;45978;53.646;55.930;2022-07-24T01:14:56;98999.19;;;19.50;74.68
60101;BME280;45978;53.646;55.930;2022-07-24T01:16:00;99003.06;;;19.80;73.86
60101;BME280;45978;53.646;55.930;2022-07-24T01:17:01;99007.00;;;20.08;72.79
60101;BME280;45978;53.646;55.930;2022-07-24T01:18:02;99002.06;;;20.36;71.66
60101;BME280;45978;53.646;55.930;2022-07-24T01:19:04;99017.00;;;20.71;70.52
60101;BME280;45978;53.646;55.930;2022-07-24T01:20:07;99006.28;;;21.03;69.27
60101;BME280;45978;53.646;55.930;2022-07-24T01:21:10;99011.75;;;21.32;67.90
60101;BME280;45978;53.646;55.930;2022-07-24T01:22:11;99006.47;;;21.63;66.61
60101;BME280;45978;53.646;55.930;2022-07-24T01:23:13;99008.09;;;21.95;65.15
60101;BME280;45978;53.646;55.930;2022-07-24T01:24:14;99011.44;;;22.28;64.18
60101;BME280;45978;53.646;55.930;2022-07-24T01:25:16;99009.34;;;22.61;62.92
60101;BME280;45978;53.646;55.930;2022-07-24T01:26:17;99003.94;;;23.00;61.64
60101;BME280;45978;53.646;55.930;2022-07-24T01:27:18;99004.19;;;23.36;60.67
60101;BME280;45978;53.646;55.930;2022-07-24T01:28:19;99005.06;;;23.64;59.48
60101;BME280;45978;53.646;55.930;2022-07-24T01:29:22;99004.25;;;23.91;58.11
60101;BME280;45978;53.646;55.930;2022-07-24T01:30:23;99011.94;;;24.22;57.24
60101;BME280;45978;53.646;55.930;2022-07-24T01:31:24;99009.78;;;24.53;56.03
60101;BME280;45978;53.646;55.930;2022-07-24T01:32:25;99010.53;;;24.81;55.61
60101;BME280;45978;53.646;55.930;2022-07-24T01:33:27;99009.59;;;25.08;54.63
60101;BME280;45978;53.646;55.930;2022-07-24T01:34:28;99014.59;;;25.29;53.37
60101;BME280;45978;53.646;55.930;2022-07-24T01:35:29;99003.31;;;25.52;52.90
60101;BME280;45978;53.646;55.930;2022-07-24T01:36:30;99004.91;;;25.71;52.04
60101;BME280;45978;53.646;55.930;2022-07-24T01:37:32;99006.03;;;25.95;51.64
60101;BME280;45978;53.646;55.930;2022-07-24T01:38:33;99010.00;;;26.17;50.69
60101;BME280;45978;53.646;55.930;2022-07-24T01:39:34;99010.69;;;26.43;50.11
60101;BME280;45978;53.646;55.930;2022-07-24T01:40:36;99009.06;;;26.67;49.62
60101;BME280;45978;53.646;55.930;2022-07-24T01:41:37;99012.63;;;26.92;48.77
60101;BME280;45978;53.646;55.930;2022-07-24T01:42:38;99005.84;;;27.13;48.28
60101;BME280;45978;53.646;55.930;2022-07-24T01:43:39;99010.56;;;27.35;47.31
60101;BME280;45978;53.646;55.930;2022-07-24T01:44:40;99008.84;;;27.51;46.80
60101;BME280;45978;53.646;55.930;2022-07-24T01:45:42;99003.72;;;27.64;46.58
60101;BME280;45978;53.646;55.930;2022-07-24T01:46:44;99001.63;;;27.91;45.85
60101;BME280;45978;53.646;55.930;2022-07-24T01:47:46;99008.78;;;28.07;45.61
60101;BME280;45978;53.646;55.930;2022-07-24T01:48:48;99005.81;;;28.24;45.08
60101;BME280;45978;53.646;55.930;2022-07-24T01:49:49;99006.69;;;28.48;44.88
60101;BME280;45978;53.646;55.930;2022-07-24T01:50:50;99003.88;;;28.64;44.40
60101;BME280;45978;53.646;55.930;2022-07-24T01:51:51;99000.16;;;28.89;43.52
60101;BME280;45978;53.646;55.930;2022-07-24T01:52:53;99007.69;;;29.16;43.10
60101;BME280;45978;53.646;55.930;2022-07-24T01:53:54;99000.16;;;29.27;42.84
60101;BME280;45978;53.646;55.930;2022-07-24T01:54:55;99001.19;;;29.40;42.69
60101;BME280;45978;53.646;55.930;2022-07-24T01:55:56;99008.00;;;29.66;42.29
60101;BME280;45978;53.646;55.930;2022-07-24T01:56:57;99012.97;;;29.77;41.97
60101;BME280;45978;53.646;55.930;2022-07-24T01:57:58;99009.34;;;29.85;41.64
60101;BME280;45978;53.646;55.930;2022-07-24T01:59:00;99000.06;;;29.94;41.16
60101;BME280;45978;53.646;55.930;2022-07-24T02:00:03;99008.03;;;30.17;41.10
60101;BME280;45978;53.646;55.930;2022-07-24T02:01:14;99004.75;;;30.37;40.67
60101;BME280;45978;53.646;55.930;2022-07-24T02:02:15;99010.34;;;30.57;40.28
60101;BME280;45978;53.646;55.930;2022-07-24T02:03:17;99009.88;;;30.90;40.22
60101;BME280;45978;53.646;55.930;2022-07-24T02:04:18;99008.75;;;31.06;39.60
60101;BME280;45978;53.646;55.930;2022-07-24T02:05:19;99010.28;;;31.15;39.48
60101;BME280;45978;53.646;55.930;2022-07-24T02:06:20;99015.41;;;31.31;39.38
60101;BME280;45978;53.646;55.930;2022-07-24T02:07:21;99007.41;;;31.51;38.95
60101;BME280;45978;53.646;55.930;2022-07-24T02:08:23;99003.94;;;31.64;38.57
60101;BME280;45978;53.646;55.930;2022-07-24T02:09:24;99003.69;;;31.59;38.45
60101;BME280;45978;53.646;55.930;2022-07-24T02:10:26;98999.22;;;31.86;38.21
60101;BME280;45978;53.646;55.930;2022-07-24T02:11:28;99002.59;;;31.95;38.10
60101;BME280;45978;53.646;55.930;2022-07-24T02:12:29;98999.97;;;32.08;38.15
60101;BME280;45978;53.646;55.930;2022-07-24T02:13:30;98992.09;;;32.27;37.41
60101;BME280;45978;53.646;55.930;2022-07-24T02:14:32;98998.41;;;32.47;37.19
60101;BME280;45978;53.646;55.930;2022-07-24T02:15:33;99005.78;;;32.67;36.80
60101;BME280;45978;53.646;55.930;2022-07-24T02:16:35;98997.19;;;32.70;36.71
60101;BME280;45978;53.646;55.930;2022-07-24T02:17:36;99001.41;;;32.92;36.56
60101;BME280;45978;53.646;55.930;2022-07-24T02:18:37;98997.41;;;33.08;36.18
60101;BME280;45978;53.646;55.930;2022-07-24T02:19:38;99004.97;;;33.33;35.85
60101;BME280;45978;53.646;55.930;2022-07-24T02:20:40;99002.25;;;33.33;35.30
60101;BME280;45978;53.646;55.930;2022-07-24T02:21:41;98996.16;;;33.31;35.39
60101;BME280;45978;53.646;55.930;2022-07-24T02:22:43;99001.00;;;33.22;35.75
60101;BME280;45978;53.646;55.930;2022-07-24T02:23:44;98999.13;;;33.16;35.33
60101;BME280;45978;53.646;55.930;2022-07-24T02:24:45;98990.94;;;33.16;35.84
60101;BME280;45978;53.646;55.930;2022-07-24T02:25:47;98997.63;;;33.27;35.42
60101;BME280;45978;53.646;55.930;2022-07-24T02:26:49;98994.50;;;33.30;35.08
60101;BME280;45978;53.646;55.930;2022-07-24T02:27:50;99000.09;;;33.48;35.16
60101;BME280;45978;53.646;55.930;2022-07-24T02:28:51;98999.69;;;33.51;35.01
60101;BME280;45978;53.646;55.930;2022-07-24T02:29:53;99002.63;;;33.63;35.08
60101;BME280;45978;53.646;55.930;2022-07-24T02:30:54;99005.28;;;33.77;35.11
60101;BME280;45978;53.646;55.930;2022-07-24T02:31:55;99000.00;;;33.88;34.77
60101;BME280;45978;53.646;55.930;2022-07-24T02:32:56;99003.31;;;34.04;34.29
60101;BME280;45978;53.646;55.930;2022-07-24T02:33:57;98997.72;;;34.30;33.96
60101;BME280;45978;53.646;55.930;2022-07-24T02:34:58;98995.22;;;34.29;33.81
60101;BME280;45978;53.646;55.930;2022-07-24T02:36:00;98996.22;;;33.89;34.34
60101;BME280;45978;53.646;55.930;2022-07-24T02:37:01;99002.50;;;33.90;34.22
60101;BME280;45978;53.646;55.930;2022-07-24T02:38:02;99004.63;;;33.81;34.94
60101;BME280;45978;53.646;55.930;2022-07-24T02:39:05;99005.91;;;33.72;34.99
60101;BME280;45978;53.646;55.930;2022-07-24T02:40:07;99000.94;;;33.69;34.73
60101;BME280;45978;53.646;55.930;2022-07-24T02:41:08;99002.13;;;33.80;34.77
60101;BME280;45978;53.646;55.930;2022-07-24T02:42:09;99006.72;;;33.86;34.21
60101;BME280;45978;53.646;55.930;2022-07-24T02:43:11;99009.97;;;34.15;34.56
60101;BME280;45978;53.646;55.930;2022-07-24T02:44:12;99006.63;;;34.51;34.00
60101;BME280;45978;53.646;55.930;2022-07-24T02:45:13;99001.69;;;34.73;33.36
60101;BME280;45978;53.646;55.930;2022-07-24T02:46:14;99006.25;;;34.79;33.42
60101;BME280;45978;53.646;55.930;2022-07-24T02:47:15;99008.41;;;34.96;32.76
60101;BME280;45978;53.646;55.930;2022-07-24T02:48:16;99007.63;;;35.14;32.51
60101;BME280;45978;53.646;55.930;2022-07-24T02:49:17;99008.22;;;35.41;32.33
60101;BME280;45978;53.646;55.930;2022-07-24T02:50:19;99008.63;;;35.63;32.13
60101;BME280;45978;53.646;55.930;2022-07-24T02:51:21;98994.44;;;35.73;31.82
60101;BME280;45978;53.646;55.930;2022-07-24T02:52:22;99004.84;;;35.82;31.60
60101;BME280;45978;53.646;55.930;2022-07-24T02:53:23;99001.72;;;35.97;31.41
60101;BME280;45978;53.646;55.930;2022-07-24T02:54:24;99005.72;;;36.13;30.79
60101;BME280;45978;53.646;55.930;2022-07-24T02:55:25;98998.75;;;36.17;30.97
60101;BME280;45978;53.646;55.930;2022-07-24T02:56:28;99000.00;;;36.33;30.46
60101;BME280;45978;53.646;55.930;2022-07-24T02:57:30;99002.69;;;36.63;30.31
60101;BME280;45978;53.646;55.930;2022-07-24T02:58:31;98993.25;;;36.47;30.68
60101;BME280;45978;53.646;55.930;2022-07-24T02:59:32;98995.66;;;36.44;30.74
60101;BME280;45978;53.646;55.930;2022-07-24T03:00:33;99003.22;;;36.30;30.49
60101;BME280;45978;53.646;55.930;2022-07-24T03:01:34;99008.78;;;36.23;31.00
60101;BME280;45978;53.646;55.930;2022-07-24T03:02:35;99010.25;;;35.89;30.89
60101;BME280;45978;53.646;55.930;2022-07-24T03:03:37;99011.38;;;36.00;31.02
60101;BME280;45978;53.646;55.930;2022-07-24T03:04:38;99010.19;;;36.26;30.48
60101;BME280;45978;53.646;55.930;2022-07-24T03:05:39;99004.91;;;36.43;30.58
60101;BME280;45978;53.646;55.930;2022-07-24T03:06:40;99009.72;;;36.59;30.13
60101;BME280;45978;53.646;55.930;2022-07-24T03:07:42;99008.72;;;36.72;29.72
60101;BME280;45978;53.646;55.930;2022-07-24T03:08:43;99009.53;;;36.31;30.52
60101;BME280;45978;53.646;55.930;2022-07-24T03:09:44;99007.56;;;36.19;30.88
60101;BME280;45978;53.646;55.930;2022-07-24T03:10:45;99014.94;;;36.19;30.65
60101;BME280;45978;53.646;55.930;2022-07-24T03:11:47;99001.31;;;36.12;30.71
60101;BME280;45978;53.646;55.930;2022-07-24T03:12:48;99002.13;;;36.31;30.41
60101;BME280;45978;53.646;55.930;2022-07-24T03:13:49;98995.97;;;36.36;30.27
60101;BME280;45978;53.646;55.930;2022-07-24T03:14:51;98996.72;;;36.43;30.52
60101;BME280;45978;53.646;55.930;2022-07-24T03:15:52;99002.34;;;36.60;30.46
60101;BME280;45978;53.646;55.930;2022-07-24T03:16:53;99006.47;;;36.81;30.10
60101;BME280;45978;53.646;55.930;2022-07-24T03:17:56;99006.63;;;37.10;29.68
60101;BME280;45978;53.646;55.930;2022-07-24T03:18:57;99005.34;;;37.24;29.26
60101;BME280;45978;53.646;55.930;2022-07-24T03:19:58;98999.03;;;37.35;29.10
60101;BME280;45978;53.646;55.930;2022-07-24T03:21:00;99001.50;;;37.72;28.65
60101;BME280;45978;53.646;55.930;2022-07-24T03:22:01;99002.13;;;37.62;29.00
60101;BME280;45978;53.646;55.930;2022-07-24T03:23:02;99000.91;;;37.70;28.95
60101;BME280;45978;53.646;55.930;2022-07-24T03:24:04;99003.31;;;37.67;28.45
60101;BME280;45978;53.646;55.930;2022-07-24T03:25:05;99005.63;;;37.87;28.51
60101;BME280;45978;53.646;55.930;2022-07-24T03:26:07;99003.44;;;38.12;28.34
60101;BME280;45978;53.646;55.930;2022-07-24T03:27:08;98994.41;;;38.29;27.69
60101;BME280;45978;53.646;55.930;2022-07-24T03:28:10;98989.78;;;38.29;27.66
60101;BME280;45978;53.646;55.930;2022-07-24T03:29:11;98997.19;;;38.46;27.66
60101;BME280;45978;53.646;55.930;2022-07-24T03:30:12;98991.28;;;38.08;27.85
60101;BME280;45978;53.646;55.930;2022-07-24T03:31:13;98996.88;;;38.13;27.87
60101;BME280;45978;53.646;55.930;2022-07-24T03:32:17;98993.69;;;38.33;27.99
60101;BME280;45978;53.646;55.930;2022-07-24T03:33:18;98992.59;;;38.34;27.64
60101;BME280;45978;53.646;55.930;2022-07-24T03:34:19;98998.53;;;38.43;27.67
60101;BME280;45978;53.646;55.930;2022-07-24T03:35:21;99002.16;;;38.32;27.26
60101;BME280;45978;53.646;55.930;2022-07-24T03:36:22;99003.03;;;38.20;27.33
60101;BME280;45978;53.646;55.930;2022-07-24T03:37:23;99000.97;;;37.87;27.93
60101;BME280;45978;53.646;55.930;2022-07-24T03:38:24;98999.69;;;37.90;28.05
60101;BME280;45978;53.646;55.930;2022-07-24T03:39:25;99010.00;;;38.11;27.83
60101;BME280;45978;53.646;55.930;2022-07-24T03:40:27;99013.13;;;38.32;27.68
60101;BME280;45978;53.646;55.930;2022-07-24T03:41:28;99016.47;;;38.34;27.19
60101;BME280;45978;53.646;55.930;2022-07-24T03:42:29;99010.06;;;38.57;26.65
60101;BME280;45978;53.646;55.930;2022-07-24T03:43:31;99004.41;;;38.63;26.40
60101;BME280;45978;53.646;55.930;2022-07-24T03:44:33;99015.34;;;38.47;26.59
60101;BME280;45978;53.646;55.930;2022-07-24T03:45:34;99006.75;;;38.43;26.57
60101;BME280;45978;53.646;55.930;2022-07-24T03:46:35;99011.25;;;38.49;26.18
60101;BME280;45978;53.646;55.930;2022-07-24T03:47:36;99010.91;;;38.74;26.03
60101;BME280;45978;53.646;55.930;2022-07-24T03:48:38;99009.50;;;38.89;26.01
60101;BME280;45978;53.646;55.930;2022-07-24T03:49:39;99010.91;;;38.91;25.75
60101;BME280;45978;53.646;55.930;2022-07-24T03:50:41;99017.16;;;39.04;25.76
60101;BME280;45978;53.646;55.930;2022-07-24T03:51:42;99010.84;;;39.03;25.45
60101;BME280;45978;53.646;55.930;2022-07-24T03:52:43;99010.91;;;38.91;25.78
60101;BME280;45978;53.646;55.930;2022-07-24T03:53:45;99008.03;;;38.98;25.40
60101;BME280;45978;53.646;55.930;2022-07-24T03:54:47;99011.81;;;38.63;25.72
60101;BME280;45978;53.646;55.930;2022-07-24T03:55:48;99010.81;;;38.69;25.91
60101;BME280;45978;53.646;55.930;2022-07-24T03:56:50;99014.66;;;38.85;25.52
60101;BME280;45978;53.646;55.930;2022-07-24T03:57:52;99015.31;;;38.92;25.25
60101;BME280;45978;53.646;55.930;2022-07-24T03:58:53;99010.84;;;39.20;24.98
60101;BME280;45978;53.646;55.930;2022-07-24T03:59:54;99013.09;;;39.06;25.19
60101;BME280;45978;53.646;55.930;2022-07-24T04:00:55;99009.84;;;39.09;25.33
60101;BME280;45978;53.646;55.930;2022-07-24T04:01:56;99007.94;;;39.10;25.21
60101;BME280;45978;53.646;55.930;2022-07-24T04:02:57;99012.00;;;39.24;25.05
60101;BME280;45978;53.646;55.930;2022-07-24T04:03:58;99014.81;;;39.46;24.67
60101;BME280;45978;53.646;55.930;2022-07-24T04:05:30;99010.84;;;39.20;24.52
60101;BME280;45978;53.646;55.930;2022-07-24T04:06:41;99011.47;;;39.27;24.75
60101;BME280;45978;53.646;55.930;2022-07-24T04:07:42;99006.16;;;39.37;24.53
60101;BME280;45978;53.646;55.930;2022-07-24T04:08:43;99010.50;;;39.33;24.49
60101;BME280;45978;53.646;55.930;2022-07-24T04:09:44;99013.81;;;39.35;24.53
60101;BME280;45978;53.646;55.930;2022-07-24T04:10:45;99010.22;;;39.52;24.60
60101;BME280;45978;53.646;55.930;2022-07-24T04:11:47;99011.72;;;39.43;24.52
60101;BME280;45978;53.646;55.930;2022-07-24T04:12:49;99013.09;;;39.62;24.17
60101;BME280;45978;53.646;55.930;2022-07-24T04:13:50;99002.69;;;39.64;24.03
60101;BME280;45978;53.646;55.930;2022-07-24T04:14:51;99008.94;;;39.82;23.94
60101;BME280;45978;53.646;55.930;2022-07-24T04:15:54;99017.88;;;39.89;24.15
60101;BME280;45978;53.646;55.930;2022-07-24T04:16:55;99008.47;;;40.07;23.98
60101;BME280;45978;53.646;55.930;2022-07-24T04:17:58;99001.72;;;40.19;24.00
60101;BME280;45978;53.646;55.930;2022-07-24T04:18:59;99006.72;;;40.23;23.86
60101;BME280;45978;53.646;55.930;2022-07-24T04:20:00;99004.56;;;40.03;23.87
60101;BME280;45978;53.646;55.930;2022-07-24T04:21:05;99003.34;;;39.93;23.72
60101;BME280;45978;53.646;55.930;2022-07-24T04:22:06;99009.50;;;40.01;23.37
60101;BME280;45978;53.646;55.930;2022-07-24T04:23:07;99008.47;;;39.85;23.47
60101;BME280;45978;53.646;55.930;2022-07-24T04:24:08;99009.38;;;39.90;23.38
60101;BME280;45978;53.646;55.930;2022-07-24T04:25:11;99006.28;;;39.65;23.74
60101;BME280;45978;53.646;55.930;2022-07-24T04:26:12;99004.41;;;39.48;23.96
60101;BME280;45978;53.646;55.930;2022-07-24T04:27:13;99000.13;;;39.57;23.65
60101;BME280;45978;53.646;55.930;2022-07-24T04:28:14;99003.25;;;39.66;23.86
60101;BME280;45978;53.646;55.930;2022-07-24T04:29:16;99000.84;;;39.70;23.67
60101;BME280;45978;53.646;55.930;2022-07-24T04:30:17;99001.94;;;39.69;23.51
60101;BME280;45978;53.646;55.930;2022-07-24T04:31:18;99006.97;;;39.55;23.48
60101;BME280;45978;53.646;55.930;2022-07-24T04:32:20;98999.56;;;39.77;23.66
60101;BME280;45978;53.646;55.930;2022-07-24T04:33:21;98997.34;;;39.96;23.15
60101;BME280;45978;53.646;55.930;2022-07-24T04:34:22;99007.50;;;39.96;23.24
60101;BME280;45978;53.646;55.930;2022-07-24T04:35:25;98999.81;;;39.76;23.42
60101;BME280;45978;53.646;55.930;2022-07-24T04:36:26;98998.97;;;39.75;23.48
60101;BME280;45978;53.646;55.930;2022-07-24T04:37:27;99003.13;;;39.78;23.53
60101;BME280;45978;53.646;55.930;2022-07-24T04:38:28;98998.53;;;39.62;23.48
60101;BME280;45978;53.646;55.930;2022-07-24T04:39:29;98993.59;;;39.64;23.87
60101;BME280;45978;53.646;55.930;2022-07-24T04:40:30;98989.00;;;39.69;23.79
60101;BME280;45978;53.646;55.930;2022-07-24T04:41:32;99003.41;;;39.76;23.85
60101;BME280;45978;53.646;55.930;2022-07-24T04:42:33;98991.63;;;39.81;23.55
60101;BME280;45978;53.646;55.930;2022-07-24T04:43:34;98997.53;;;39.90;23.69
60101;BME280;45978;53.646;55.930;2022-07-24T04:44:35;98997.34;;;39.96;23.12
60101;BME280;45978;53.646;55.930;2022-07-24T04:45:36;98994.81;;;40.17;23.29
60101;BME280;45978;53.646;55.930;2022-07-24T04:46:38;98991.19;;;39.89;22.92
60101;BME280;45978;53.646;55.930;2022-07-24T04:47:40;98992.97;;;39.78;22.84
60101;BME280;45978;53.646;55.930;2022-07-24T04:48:41;98990.28;;;39.84;23.11
60101;BME280;45978;53.646;55.930;2022-07-24T04:49:42;98982.88;;;39.62;22.82
60101;BME280;45978;53.646;55.930;2022-07-24T04:50:45;98992.97;;;39.78;22.66
60101;BME280;45978;53.646;55.930;2022-07-24T04:51:47;98996.72;;;39.89;22.57
60101;BME280;45978;53.646;55.930;2022-07-24T04:52:49;98991.06;;;39.79;22.26
60101;BME280;45978;53.646;55.930;2022-07-24T04:53:50;98985.56;;;39.79;22.40
60101;BME280;45978;53.646;55.930;2022-07-24T04:54:55;98988.00;;;39.97;22.30
60101;BME280;45978;53.646;55.930;2022-07-24T04:55:57;98987.66;;;39.94;22.16
60101;BME280;45978;53.646;55.930;2022-07-24T04:56:59;98981.03;;;39.90;22.18
60101;BME280;45978;53.646;55.930;2022-07-24T04:58:00;98985.81;;;39.77;22.40
60101;BME280;45978;53.646;55.930;2022-07-24T04:59:01;98983.41;;;39.42;22.94
60101;BME280;45978;53.646;55.930;2022-07-24T05:00:05;98982.25;;;39.38;23.45
60101;BME280;45978;53.646;55.930;2022-07-24T05:01:07;98990.38;;;39.11;24.01
60101;BME280;45978;53.646;55.930;2022-07-24T05:02:09;98978.78;;;39.26;23.21
60101;BME280;45978;53.646;55.930;2022-07-24T05:03:10;98976.84;;;39.43;23.17
60101;BME280;45978;53.646;55.930;2022-07-24T05:04:12;98981.78;;;39.63;22.75
60101;BME280;45978;53.646;55.930;2022-07-24T05:05:13;98981.78;;;39.63;22.75
60101;BME280;45978;53.646;55.930;2022-07-24T05:06:14;98981.72;;;39.58;22.88
60101;BME280;45978;53.646;55.930;2022-07-24T05:07:15;98983.41;;;39.42;23.32
60101;BME280;45978;53.646;55.930;2022-07-24T05:08:16;98974.94;;;39.44;22.96
60101;BME280;45978;53.646;55.930;2022-07-24T05:09:17;98970.06;;;39.51;22.85
60101;BME280;45978;53.646;55.930;2022-07-24T05:10:18;98977.34;;;39.84;22.71
60101;BME280;45978;53.646;55.930;2022-07-24T05:11:20;98977.31;;;40.01;22.47
60101;BME280;45978;53.646;55.930;2022-07-24T05:12:21;98982.56;;;40.03;22.26
60101;BME280;45978;53.646;55.930;2022-07-24T05:13:22;98977.81;;;39.98;22.36
60101;BME280;45978;53.646;55.930;2022-07-24T05:14:24;98980.69;;;40.08;22.18
60101;BME280;45978;53.646;55.930;2022-07-24T05:15:25;98979.53;;;40.53;21.68
60101;BME280;45978;53.646;55.930;2022-07-24T05:16:26;98982.78;;;40.50;21.55
60101;BME280;45978;53.646;55.930;2022-07-24T05:17:27;98984.13;;;40.21;21.69
60101;BME280;45978;53.646;55.930;2022-07-24T05:18:28;98980.91;;;39.40;22.51
60101;BME280;45978;53.646;55.930;2022-07-24T05:19:29;98987.69;;;38.82;23.47
60101;BME280;45978;53.646;55.930;2022-07-24T05:20:30;98976.13;;;38.34;23.59
60101;BME280;45978;53.646;55.930;2022-07-24T05:21:32;98977.41;;;37.86;23.99
60101;BME280;45978;53.646;55.930;2022-07-24T05:22:33;98977.13;;;37.99;24.18